Time;durP1;ratioP1;P1;durP2;ratioP2;P2;SDS_P1;SDS_P2;PMS_P1;PMS_P2;Temp;Humidity;BMP_temperature;BMP_pressure;BME280_temperature;BME280_humidity;BME280_pressure;Samples;Min_cycle;Max_cycle;Signal;HPM_P1;HPM_P2
2021/04/16 00:00:12;;;;;;;5.03;2.00;;;;;;;;;;4971609;28;20039;-85
2021/04/16 00:02:38;;;;;;;3.80;1.95;;;;;;;;;;4972194;28;20041;-84
2021/04/16 00:05:05;;;;;;;4.28;2.00;;;;;;;;;;4972387;28;20146;-85
2021/04/16 00:07:31;;;;;;;3.15;1.90;;;;;;;;;;4956033;28;20122;-85
2021/04/16 00:09:59;;;;;;;4.70;2.08;;;;;;;;;;4972249;28;20077;-85
2021/04/16 00:12:25;;;;;;;4.25;1.90;;;;;;;;;;4972115;28;20383;-85
2021/04/16 00:14:51;;;;;;;6.22;2.35;;;;;;;;;;4972039;28;20050;-85
2021/04/16 00:17:17;;;;;;;3.53;2.05;;;;;;;;;;4972046;28;20039;-85
2021/04/16 00:19:43;;;;;;;4.13;2.00;;;;;;;;;;4972205;28;20035;-85
2021/04/16 00:22:09;;;;;;;5.75;2.30;;;;;;;;;;4972148;28;20508;-85
2021/04/16 00:24:35;;;;;;;4.63;2.28;;;;;;;;;;4972267;28;20379;-85
2021/04/16 00:27:01;;;;;;;7.70;2.20;;;;;;;;;;4955797;28;20093;-82
2021/04/16 00:29:27;;;;;;;4.30;2.28;;;;;;;;;;4962698;28;20050;-84
2021/04/16 00:31:55;;;;;;;5.13;2.53;;;;;;;;;;4971923;28;20402;-84
2021/04/16 00:34:25;;;;;;;2.60;2.00;;;;;;;;;;4971922;28;20042;-84
2021/04/16 00:36:51;;;;;;;3.58;2.17;;;;;;;;;;4973094;28;20497;-84
2021/04/16 00:39:17;;;;;;;4.28;2.17;;;;;;;;;;4956138;28;20137;-84
2021/04/16 00:41:43;;;;;;;4.72;2.30;;;;;;;;;;4971879;28;20054;-83
2021/04/16 00:44:09;;;;;;;4.70;2.13;;;;;;;;;;4971785;28;20035;-84
2021/04/16 00:46:42;;;;;;;2.78;2.20;;;;;;;;;;4973194;28;20369;-84
2021/04/16 00:49:08;;;;;;;3.72;2.30;;;;;;;;;;4973247;28;20047;-84
2021/04/16 00:51:40;;;;;;;4.80;2.08;;;;;;;;;;4971802;28;20121;-84
2021/04/16 00:54:07;;;;;;;7.00;2.67;;;;;;;;;;4971953;28;20035;-84
2021/04/16 00:56:33;;;;;;;5.43;2.33;;;;;;;;;;4939942;28;20053;-84
2021/04/16 00:59:00;;;;;;;6.72;2.50;;;;;;;;;;4971792;28;20046;-84
2021/04/16 01:01:26;;;;;;;3.42;2.35;;;;;;;;;;4955678;28;20046;-85
2021/04/16 01:03:52;;;;;;;6.32;2.25;;;;;;;;;;4955635;28;20051;-85
2021/04/16 01:06:19;;;;;;;5.30;2.35;;;;;;;;;;4971469;28;20047;-84
2021/04/16 01:08:47;;;;;;;6.63;2.50;;;;;;;;;;4971657;28;20038;-85
2021/04/16 01:11:14;;;;;;;5.20;2.50;;;;;;;;;;4955621;28;20046;-85
2021/04/16 01:13:40;;;;;;;5.43;2.78;;;;;;;;;;4959141;28;20102;-85
2021/04/16 01:16:09;;;;;;;6.47;2.60;;;;;;;;;;4975185;28;20038;-85
2021/04/16 01:18:38;;;;;;;5.53;3.95;;;;;;;;;;4944276;28;20046;-84
2021/04/16 01:21:08;;;;;;;4.30;2.38;;;;;;;;;;4959004;28;20089;-85
2021/04/16 01:23:35;;;;;;;4.10;2.25;;;;;;;;;;4974878;28;20043;-84
2021/04/16 01:26:01;;;;;;;5.60;2.25;;;;;;;;;;4974868;28;20046;-85
2021/04/16 01:28:27;;;;;;;6.03;2.45;;;;;;;;;;4958647;28;20509;-85
2021/04/16 01:30:55;;;;;;;7.22;3.00;;;;;;;;;;4974799;28;20043;-85
2021/04/16 01:33:21;;;;;;;5.28;2.70;;;;;;;;;;4975980;28;20150;-83
2021/04/16 01:35:47;;;;;;;6.40;2.50;;;;;;;;;;4974736;28;20035;-84
2021/04/16 01:38:13;;;;;;;5.82;2.70;;;;;;;;;;4974654;28;20066;-84
2021/04/16 01:40:39;;;;;;;4.30;2.85;;;;;;;;;;4958803;28;20113;-83
2021/04/16 01:43:15;;;;;;;3.92;2.22;;;;;;;;;;4958534;28;20039;-84
2021/04/16 01:45:41;;;;;;;4.68;2.75;;;;;;;;;;4974699;28;20605;-83
2021/04/16 01:48:07;;;;;;;2.80;2.20;;;;;;;;;;4974554;28;20035;-84
2021/04/16 01:50:33;;;;;;;4.50;2.33;;;;;;;;;;4958317;28;20050;-84
2021/04/16 01:53:00;;;;;;;6.32;2.50;;;;;;;;;;4975482;28;20095;-85
2021/04/16 01:55:26;;;;;;;6.93;2.50;;;;;;;;;;4974412;28;20549;-84
2021/04/16 01:57:52;;;;;;;5.78;2.40;;;;;;;;;;4958270;28;20053;-84
2021/04/16 02:00:20;;;;;;;5.78;2.70;;;;;;;;;;4974313;28;20073;-82
2021/04/16 02:02:46;;;;;;;5.57;2.58;;;;;;;;;;4958398;28;20038;-83
2021/04/16 02:05:13;;;;;;;5.40;2.80;;;;;;;;;;4957819;28;20109;-84
2021/04/16 02:07:39;;;;;;;5.20;2.38;;;;;;;;;;4974164;28;20042;-83
2021/04/16 02:10:05;;;;;;;5.57;2.47;;;;;;;;;;4957963;28;20075;-83
2021/04/16 02:12:33;;;;;;;5.95;2.85;;;;;;;;;;4975164;28;20047;-83
2021/04/16 02:14:59;;;;;;;5.30;2.33;;;;;;;;;;4974016;28;20043;-84
2021/04/16 02:17:26;;;;;;;5.00;2.30;;;;;;;;;;4973961;28;20035;-83
2021/04/16 02:19:53;;;;;;;5.03;2.60;;;;;;;;;;4957706;28;20042;-84
2021/04/16 02:22:21;;;;;;;3.85;2.33;;;;;;;;;;4973951;28;20430;-83
2021/04/16 02:24:47;;;;;;;4.07;2.67;;;;;;;;;;4956964;28;20054;-84
2021/04/16 02:27:13;;;;;;;4.35;2.28;;;;;;;;;;4957712;28;20126;-83
2021/04/16 02:29:39;;;;;;;5.10;2.72;;;;;;;;;;4982406;28;20055;-85
2021/04/16 02:32:07;;;;;;;8.30;3.20;;;;;;;;;;4957799;28;20054;-83
2021/04/16 02:34:33;;;;;;;4.50;2.35;;;;;;;;;;4973648;28;20113;-84
2021/04/16 02:37:00;;;;;;;5.35;2.20;;;;;;;;;;4957539;28;20042;-83
2021/04/16 02:39:26;;;;;;;6.75;2.50;;;;;;;;;;4973603;28;20038;-83
2021/04/16 02:41:52;;;;;;;4.03;2.22;;;;;;;;;;4974691;28;20046;-83
2021/04/16 02:44:18;;;;;;;4.38;2.47;;;;;;;;;;4973521;28;20054;-84
2021/04/16 02:46:47;;;;;;;9.48;3.50;;;;;;;;;;4973512;28;20047;-84
2021/04/16 02:49:13;;;;;;;5.63;2.60;;;;;;;;;;4973410;28;20035;-84
2021/04/16 02:51:39;;;;;;;6.43;2.50;;;;;;;;;;4974400;28;20078;-84
2021/04/16 02:54:05;;;;;;;5.55;2.30;;;;;;;;;;4973288;28;20074;-83
2021/04/16 02:56:31;;;;;;;6.03;2.78;;;;;;;;;;4957281;28;20395;-83
2021/04/16 02:58:58;;;;;;;6.13;2.78;;;;;;;;;;4974480;28;20134;-84
2021/04/16 03:01:24;;;;;;;5.88;2.50;;;;;;;;;;4973214;28;20463;-83
2021/04/16 03:03:50;;;;;;;3.88;2.60;;;;;;;;;;4973099;28;20042;-84
2021/04/16 03:06:17;;;;;;;6.68;2.88;;;;;;;;;;4974196;28;20389;-84
2021/04/16 03:08:43;;;;;;;7.18;2.08;;;;;;;;;;4973166;28;20042;-84
2021/04/16 03:11:09;;;;;;;5.35;2.72;;;;;;;;;;4972949;28;20110;-84
2021/04/16 03:13:37;;;;;;;5.75;2.80;;;;;;;;;;4957327;28;20055;-86
2021/04/16 03:16:03;;;;;;;6.97;2.45;;;;;;;;;;4973019;28;20039;-84
2021/04/16 03:18:29;;;;;;;3.75;2.78;;;;;;;;;;4972904;28;20447;-85
2021/04/16 03:20:55;;;;;;;4.47;2.58;;;;;;;;;;4972782;28;20043;-84
2021/04/16 03:23:21;;;;;;;4.80;2.47;;;;;;;;;;4956906;28;20073;-84
2021/04/16 03:25:47;;;;;;;5.10;2.58;;;;;;;;;;4972804;28;20038;-84
2021/04/16 03:28:13;;;;;;;4.38;2.60;;;;;;;;;;4972702;28;20106;-84
2021/04/16 03:30:42;;;;;;;6.18;2.75;;;;;;;;;;4973722;28;20046;-84
2021/04/16 03:33:08;;;;;;;4.93;3.17;;;;;;;;;;4972682;28;20117;-84
2021/04/16 03:35:34;;;;;;;8.32;2.80;;;;;;;;;;4972630;28;20122;-85
2021/04/16 03:38:00;;;;;;;6.15;2.78;;;;;;;;;;4972616;28;20037;-84
2021/04/16 03:40:30;;;;;;;8.40;3.28;;;;;;;;;;4972614;28;20043;-84
2021/04/16 03:42:56;;;;;;;8.32;2.70;;;;;;;;;;4972496;28;20445;-85
2021/04/16 03:45:22;;;;;;;6.93;2.88;;;;;;;;;;4972358;28;20126;-84
2021/04/16 03:47:48;;;;;;;5.15;3.00;;;;;;;;;;4972383;28;20042;-83
2021/04/16 03:50:15;;;;;;;6.00;3.20;;;;;;;;;;4956464;28;20156;-83
2021/04/16 03:52:42;;;;;;;5.38;3.13;;;;;;;;;;4972292;28;20046;-84
2021/04/16 03:55:08;;;;;;;4.22;2.83;;;;;;;;;;4972357;28;20395;-84
2021/04/16 03:57:34;;;;;;;7.28;2.95;;;;;;;;;;4956081;28;20051;-84
2021/04/16 04:00:01;;;;;;;5.18;2.58;;;;;;;;;;4972271;28;20035;-83
2021/04/16 04:02:27;;;;;;;6.07;2.83;;;;;;;;;;4972313;28;20070;-83
2021/04/16 04:04:52;;;;;;;4.72;2.67;;;;;;;;;;4972262;28;20077;-84
2021/04/16 04:07:19;;;;;;;8.85;2.80;;;;;;;;;;4972318;28;20038;-83
2021/04/16 04:09:45;;;;;;;7.43;2.80;;;;;;;;;;4973545;28;20039;-84
2021/04/16 04:12:11;;;;;;;7.50;2.72;;;;;;;;;;4972114;28;20122;-83
2021/04/16 04:14:38;;;;;;;7.07;2.70;;;;;;;;;;4972016;28;20051;-84
2021/04/16 04:17:05;;;;;;;4.88;2.67;;;;;;;;;;4972146;28;20039;-83
2021/04/16 04:19:31;;;;;;;8.20;3.28;;;;;;;;;;4973345;28;20057;-87
2021/04/16 04:21:58;;;;;;;6.30;3.10;;;;;;;;;;4972071;28;20042;-87
2021/04/16 04:24:24;;;;;;;10.25;3.72;;;;;;;;;;4972030;28;20062;-86
2021/04/16 04:26:50;;;;;;;5.90;3.17;;;;;;;;;;4972030;28;20475;-84
2021/04/16 04:29:17;;;;;;;4.75;3.35;;;;;;;;;;4961442;28;20061;-86
2021/04/16 04:31:47;;;;;;;7.05;3.35;;;;;;;;;;4956108;28;20099;-86
2021/04/16 04:34:23;;;;;;;6.53;3.53;;;;;;;;;;4971950;28;20370;-85
2021/04/16 04:36:49;;;;;;;6.82;3.20;;;;;;;;;;4956102;28;20489;-84
2021/04/16 04:39:15;;;;;;;8.48;3.13;;;;;;;;;;4972092;28;20073;-84
2021/04/16 04:41:41;;;;;;;6.75;3.40;;;;;;;;;;4971914;28;20120;-84
2021/04/16 04:44:08;;;;;;;7.90;3.25;;;;;;;;;;4955804;28;20050;-84
2021/04/16 04:46:34;;;;;;;6.18;3.88;;;;;;;;;;4972413;28;20042;-87
2021/04/16 04:49:00;;;;;;;6.68;3.08;;;;;;;;;;4975718;28;20031;-86
2021/04/16 04:51:26;;;;;;;8.85;3.90;;;;;;;;;;4975597;28;20137;-86
2021/04/16 04:53:52;;;;;;;11.48;4.07;;;;;;;;;;4959585;28;20065;-85
2021/04/16 04:56:18;;;;;;;6.22;3.42;;;;;;;;;;4975513;28;20034;-86
2021/04/16 04:58:44;;;;;;;10.52;3.92;;;;;;;;;;4976633;28;20492;-84
2021/04/16 05:01:10;;;;;;;9.00;4.30;;;;;;;;;;4959468;28;20054;-83
2021/04/16 05:03:36;;;;;;;8.85;4.10;;;;;;;;;;4975419;28;20117;-84
2021/04/16 05:06:02;;;;;;;9.82;3.63;;;;;;;;;;4976449;28;20507;-83
2021/04/16 05:08:29;;;;;;;6.22;3.80;;;;;;;;;;4975301;28;20039;-84
2021/04/16 05:10:55;;;;;;;9.52;3.70;;;;;;;;;;4976295;28;20050;-84
2021/04/16 05:13:21;;;;;;;8.52;3.50;;;;;;;;;;4959386;28;20046;-83
2021/04/16 05:15:49;;;;;;;7.72;3.70;;;;;;;;;;4975319;28;20042;-84
2021/04/16 05:18:15;;;;;;;7.05;3.17;;;;;;;;;;4975174;28;20545;-85
2021/04/16 05:20:41;;;;;;;7.47;3.60;;;;;;;;;;4959216;28;20065;-85
2021/04/16 05:23:07;;;;;;;11.48;3.40;;;;;;;;;;4975040;28;20113;-83
2021/04/16 05:25:33;;;;;;;10.10;4.10;;;;;;;;;;4958921;28;20046;-83
2021/04/16 05:27:59;;;;;;;6.63;3.40;;;;;;;;;;4976044;28;20478;-84
2021/04/16 05:30:25;;;;;;;5.55;3.63;;;;;;;;;;4974555;28;20487;-84
2021/04/16 05:32:51;;;;;;;8.60;4.18;;;;;;;;;;4975032;28;20122;-85
2021/04/16 05:35:17;;;;;;;7.63;3.47;;;;;;;;;;4959032;28;20066;-83
2021/04/16 05:37:44;;;;;;;9.18;4.18;;;;;;;;;;4974740;28;20503;-83
2021/04/16 05:40:10;;;;;;;8.75;3.80;;;;;;;;;;4975812;28;20391;-84
2021/04/16 05:42:36;;;;;;;9.30;3.85;;;;;;;;;;4958776;28;20046;-85
2021/04/16 05:45:04;;;;;;;7.97;3.65;;;;;;;;;;4974689;28;20436;-85
2021/04/16 05:47:30;;;;;;;7.72;3.42;;;;;;;;;;4958658;28;20410;-84
2021/04/16 05:49:56;;;;;;;9.18;3.38;;;;;;;;;;4974530;28;20031;-83
2021/04/16 05:52:22;;;;;;;8.30;3.95;;;;;;;;;;4975505;28;20050;-84
2021/04/16 05:54:48;;;;;;;7.43;3.50;;;;;;;;;;4958563;28;20100;-84
2021/04/16 05:57:14;;;;;;;6.55;3.38;;;;;;;;;;4974463;28;20501;-83
2021/04/16 05:59:40;;;;;;;5.93;3.15;;;;;;;;;;4973278;28;20069;-84
2021/04/16 06:02:23;;;;;;;7.47;3.13;;;;;;;;;;4974353;28;20475;-84
2021/04/16 06:04:48;;;;;;;5.07;2.63;;;;;;;;;;4974409;28;20094;-83
2021/04/16 06:07:15;;;;;;;7.55;3.25;;;;;;;;;;4959625;28;20038;-84
2021/04/16 06:09:41;;;;;;;4.47;2.85;;;;;;;;;;4974420;28;20114;-84
2021/04/16 06:12:07;;;;;;;7.00;3.38;;;;;;;;;;4974135;28;20055;-84
2021/04/16 06:14:33;;;;;;;7.90;3.20;;;;;;;;;;4958144;28;20046;-85
2021/04/16 06:17:00;;;;;;;5.70;2.70;;;;;;;;;;4974067;28;20126;-85
2021/04/16 06:19:27;;;;;;;5.00;2.75;;;;;;;;;;4973917;28;20070;-85
2021/04/16 06:21:53;;;;;;;5.60;2.85;;;;;;;;;;4975210;28;20051;-84
2021/04/16 06:24:19;;;;;;;6.70;2.90;;;;;;;;;;4974196;28;20045;-85
2021/04/16 06:26:45;;;;;;;5.88;3.08;;;;;;;;;;4957804;28;20125;-86
2021/04/16 06:29:11;;;;;;;9.63;3.30;;;;;;;;;;4957615;28;20134;-85
2021/04/16 06:31:37;;;;;;;10.73;3.30;;;;;;;;;;4973721;28;20466;-85
2021/04/16 06:34:03;;;;;;;6.43;3.13;;;;;;;;;;4973710;28;20070;-85
2021/04/16 06:36:29;;;;;;;8.02;3.30;;;;;;;;;;4974787;28;20054;-85
2021/04/16 06:38:55;;;;;;;9.75;3.05;;;;;;;;;;4973643;28;20043;-86
2021/04/16 06:41:25;;;;;;;10.18;3.03;;;;;;;;;;4957704;28;20050;-85
2021/04/16 06:43:52;;;;;;;5.72;2.85;;;;;;;;;;4957618;28;20126;-86
2021/04/16 06:46:23;;;;;;;8.95;2.53;;;;;;;;;;4957329;28;20066;-86
2021/04/16 06:48:49;;;;;;;6.22;2.33;;;;;;;;;;4973442;28;20375;-86
2021/04/16 06:51:15;;;;;;;8.68;2.80;;;;;;;;;;4973306;28;20050;-87
2021/04/16 06:53:53;;;;;;;6.68;2.35;;;;;;;;;;4957537;28;20039;-87
2021/04/16 06:56:39;;;;;;;9.90;2.70;;;;;;;;;;4957479;28;20046;-85
2021/04/16 06:59:15;;;;;;;7.47;2.67;;;;;;;;;;4959959;28;20113;-84
2021/04/16 07:01:42;;;;;;;11.68;3.13;;;;;;;;;;4970080;28;20118;-84
2021/04/16 07:04:12;;;;;;;9.48;2.65;;;;;;;;;;4969501;28;20039;-85
2021/04/16 07:06:38;;;;;;;6.05;2.50;;;;;;;;;;4953622;28;20047;-85
2021/04/16 07:09:09;;;;;;;7.60;2.45;;;;;;;;;;4969613;28;20032;-84
2021/04/16 07:11:42;;;;;;;7.82;2.17;;;;;;;;;;4953711;29;20380;-85
2021/04/16 07:14:20;;;;;;;3.75;1.85;;;;;;;;;;4969777;28;20046;-84
2021/04/16 07:16:46;;;;;;;6.82;2.50;;;;;;;;;;4953586;29;20043;-85
2021/04/16 07:19:15;;;;;;;6.35;2.45;;;;;;;;;;4953391;29;20046;-86
2021/04/16 07:21:41;;;;;;;5.00;2.33;;;;;;;;;;4969612;28;20049;-85
2021/04/16 07:24:07;;;;;;;9.02;2.58;;;;;;;;;;4969229;28;20048;-86
2021/04/16 07:26:41;;;;;;;6.07;2.20;;;;;;;;;;4968704;28;20039;-86
2021/04/16 07:29:07;;;;;;;5.95;2.30;;;;;;;;;;4968405;28;20049;-87
2021/04/16 07:31:37;;;;;;;6.10;2.30;;;;;;;;;;4987814;28;20183;-85
2021/04/16 07:34:03;;;;;;;5.93;2.35;;;;;;;;;;4972771;28;20035;-86
2021/04/16 07:36:31;;;;;;;7.82;1.98;;;;;;;;;;4971432;28;20431;-86
2021/04/16 07:39:18;;;;;;;5.05;1.90;;;;;;;;;;4956703;28;20206;-86
2021/04/16 07:41:54;;;;;;;8.30;2.42;;;;;;;;;;4952936;28;20051;-86
2021/04/16 07:44:34;;;;;;;5.03;1.90;;;;;;;;;;4972762;28;20039;-86
2021/04/16 07:47:03;;;;;;;3.72;1.48;;;;;;;;;;4972407;28;20031;-83
2021/04/16 07:49:30;;;;;;;4.85;1.83;;;;;;;;;;4956558;28;20039;-84
2021/04/16 07:51:58;;;;;;;4.30;2.13;;;;;;;;;;4956487;28;20039;-85
2021/04/16 07:54:25;;;;;;;3.40;1.50;;;;;;;;;;4956363;28;20061;-86
2021/04/16 07:57:27;;;;;;;3.63;1.58;;;;;;;;;;4952744;29;20542;-85
2021/04/16 07:59:57;;;;;;;3.40;1.70;;;;;;;;;;4904825;29;20040;-84
2021/04/16 08:02:25;;;;;;;5.53;1.88;;;;;;;;;;4959269;28;20406;-85
2021/04/16 08:04:51;;;;;;;5.55;1.45;;;;;;;;;;4956246;28;20113;-85
2021/04/16 08:07:18;;;;;;;4.28;1.40;;;;;;;;;;4972034;28;20122;-85
2021/04/16 08:09:44;;;;;;;3.40;1.48;;;;;;;;;;4956221;28;20114;-85
2021/04/16 08:12:13;;;;;;;4.05;1.80;;;;;;;;;;4955972;28;20498;-86
2021/04/16 08:14:40;;;;;;;2.47;1.30;;;;;;;;;;4973318;28;20065;-85
2021/04/16 08:17:17;;;;;;;2.45;1.60;;;;;;;;;;4940391;28;20450;-85
2021/04/16 08:19:44;;;;;;;2.28;1.40;;;;;;;;;;4972178;28;20042;-86
2021/04/16 08:22:10;;;;;;;2.65;1.35;;;;;;;;;;4957607;28;20046;-88
2021/04/16 08:24:43;;;;;;;3.75;1.63;;;;;;;;;;4976959;28;20057;-85
2021/04/16 08:27:09;;;;;;;1.95;1.30;;;;;;;;;;4976108;28;20035;-84
2021/04/16 08:29:36;;;;;;;2.20;1.10;;;;;;;;;;4977160;28;20050;-84
2021/04/16 08:32:05;;;;;;;2.28;1.27;;;;;;;;;;4943926;28;20118;-84
2021/04/16 08:34:41;;;;;;;3.55;1.77;;;;;;;;;;4959899;28;20035;-84
2021/04/16 08:37:09;;;;;;;3.33;1.42;;;;;;;;;;4955661;28;20034;-85
2021/04/16 08:39:40;;;;;;;6.28;1.77;;;;;;;;;;4959959;28;20475;-84
2021/04/16 08:42:12;;;;;;;2.75;1.40;;;;;;;;;;4958899;28;20125;-84
2021/04/16 08:44:39;;;;;;;2.30;1.45;;;;;;;;;;4975754;28;20045;-85
2021/04/16 08:47:05;;;;;;;3.75;1.10;;;;;;;;;;4959441;28;20481;-84
2021/04/16 08:49:32;;;;;;;3.08;1.40;;;;;;;;;;4959589;28;20046;-86
2021/04/16 08:52:06;;;;;;;7.38;1.83;;;;;;;;;;4943625;28;20122;-84
2021/04/16 08:54:35;;;;;;;8.20;1.60;;;;;;;;;;4959573;28;20075;-84
2021/04/16 08:57:06;;;;;;;2.55;1.00;;;;;;;;;;4976532;28;20383;-87
2021/04/16 08:59:48;;;;;;;4.38;1.30;;;;;;;;;;4943606;28;20045;-89
2021/04/16 09:02:22;;;;;;;2.72;1.23;;;;;;;;;;4976659;28;20078;-90
2021/04/16 09:04:51;;;;;;;3.88;1.10;;;;;;;;;;4943465;28;20379;-84
2021/04/16 09:07:37;;;;;;;2.70;1.20;;;;;;;;;;4942601;28;20047;-84
2021/04/16 09:10:15;;;;;;;3.40;1.30;;;;;;;;;;4943217;28;20489;-85
2021/04/16 09:12:41;;;;;;;3.72;1.30;;;;;;;;;;4959088;28;20405;-86
2021/04/16 09:15:07;;;;;;;2.08;1.27;;;;;;;;;;4976238;28;20043;-85
2021/04/16 09:18:00;;;;;;;2.10;1.27;;;;;;;;;;4958960;28;20092;-85
2021/04/16 09:20:35;;;;;;;3.30;1.25;;;;;;;;;;4972934;28;20051;-84
2021/04/16 09:23:02;;;;;;;3.03;1.30;;;;;;;;;;4976086;28;20175;-85
2021/04/16 09:25:35;;;;;;;2.45;1.30;;;;;;;;;;4943080;28;20126;-85
2021/04/16 09:28:19;;;;;;;2.08;1.20;;;;;;;;;;4975933;28;20438;-86
2021/04/16 09:30:45;;;;;;;2.83;1.35;;;;;;;;;;4976218;28;20038;-86
2021/04/16 09:33:21;;;;;;;3.13;1.17;;;;;;;;;;4958845;28;20043;-85
2021/04/16 09:35:49;;;;;;;6.05;1.40;;;;;;;;;;4958804;28;20118;-89
2021/04/16 09:38:24;;;;;;;2.33;1.20;;;;;;;;;;4954575;28;20049;-86
2021/04/16 09:41:06;;;;;;;2.05;1.10;;;;;;;;;;4939828;29;20073;-89
2021/04/16 09:43:32;;;;;;;2.50;1.17;;;;;;;;;;4955188;29;20051;-87
2021/04/16 09:45:58;;;;;;;4.53;1.60;;;;;;;;;;4939245;29;20043;-87
2021/04/16 09:48:25;;;;;;;5.40;1.50;;;;;;;;;;4939217;29;20594;-86
2021/04/16 09:51:11;;;;;;;3.05;1.10;;;;;;;;;;4939236;29;20039;-85
2021/04/16 09:53:37;;;;;;;4.30;1.42;;;;;;;;;;4956230;29;20053;-85
2021/04/16 09:56:30;;;;;;;4.15;1.30;;;;;;;;;;4939232;29;20047;-85
2021/04/16 09:58:59;;;;;;;1.50;1.40;;;;;;;;;;4952863;29;20051;-87
2021/04/16 10:01:26;;;;;;;2.55;1.40;;;;;;;;;;4940518;29;20118;-83
2021/04/16 10:04:02;;;;;;;2.03;1.20;;;;;;;;;;4939153;29;20077;-85
2021/04/16 10:06:28;;;;;;;1.52;1.40;;;;;;;;;;4939029;29;20041;-85
2021/04/16 10:09:10;;;;;;;3.33;1.55;;;;;;;;;;4955904;29;20090;-84
2021/04/16 10:11:36;;;;;;;2.05;1.40;;;;;;;;;;4954781;29;20039;-85
2021/04/16 10:14:21;;;;;;;3.38;1.38;;;;;;;;;;4938988;29;20179;-84
2021/04/16 10:16:50;;;;;;;3.78;1.70;;;;;;;;;;4954997;28;20045;-84
2021/04/16 10:19:19;;;;;;;2.92;1.30;;;;;;;;;;4968804;28;20197;-83
2021/04/16 10:21:46;;;;;;;3.15;1.60;;;;;;;;;;4957924;28;20043;-84
2021/04/16 10:41:31;;;;;;;4.03;1.58;;;;;;;;;;4974816;28;20402;-86
2021/04/16 10:48:00;;;;;;;2.28;1.30;;;;;;;;;;4973310;28;20047;-86
2021/04/16 11:16:29;;;;;;;5.57;1.92;;;;;;;;;;4973350;28;20038;-87
2021/04/16 12:39:49;;;;;;;3.60;2.15;;;;;;;;;;4958354;28;20039;-85
2021/04/16 12:42:16;;;;;;;7.55;2.10;;;;;;;;;;4939768;28;20454;-84
2021/04/16 12:44:44;;;;;;;3.60;1.85;;;;;;;;;;4955817;28;20086;-85
2021/04/16 12:47:14;;;;;;;6.28;2.50;;;;;;;;;;4955555;28;20078;-84
2021/04/16 12:49:40;;;;;;;6.22;2.70;;;;;;;;;;4955559;28;20039;-84
2021/04/16 12:52:07;;;;;;;4.07;2.03;;;;;;;;;;4955949;28;20066;-85
2021/04/16 12:54:39;;;;;;;7.68;2.28;;;;;;;;;;4955868;28;20049;-84
2021/04/16 12:57:06;;;;;;;4.80;2.80;;;;;;;;;;4939869;28;20135;-84
2021/04/16 12:59:32;;;;;;;7.07;2.17;;;;;;;;;;4955686;28;20081;-84
2021/04/16 13:01:58;;;;;;;6.15;2.00;;;;;;;;;;4935185;29;20719;-84
2021/04/16 13:04:24;;;;;;;2.88;1.88;;;;;;;;;;4952344;29;20065;-84
2021/04/16 13:06:51;;;;;;;5.72;2.63;;;;;;;;;;4936486;28;20051;-84
2021/04/16 13:09:17;;;;;;;3.92;1.85;;;;;;;;;;4955551;29;20550;-82
2021/04/16 13:11:44;;;;;;;3.35;1.60;;;;;;;;;;4939790;29;20047;-83
2021/04/16 13:14:10;;;;;;;4.43;2.03;;;;;;;;;;4939861;29;20036;-83
2021/04/16 13:16:36;;;;;;;5.88;2.08;;;;;;;;;;4957256;29;20040;-83
2021/04/16 13:19:04;;;;;;;5.53;2.70;;;;;;;;;;4939811;29;20042;-83
2021/04/16 13:21:40;;;;;;;4.75;2.13;;;;;;;;;;4939774;29;20047;-84
2021/04/16 13:24:06;;;;;;;4.70;2.50;;;;;;;;;;4955887;29;20043;-84
2021/04/16 13:26:34;;;;;;;4.35;2.05;;;;;;;;;;4939605;29;20094;-84
2021/04/16 13:29:00;;;;;;;6.28;2.50;;;;;;;;;;4958854;28;20047;-83
2021/04/16 13:31:26;;;;;;;3.53;2.25;;;;;;;;;;4955482;29;20055;-84
2021/04/16 13:33:52;;;;;;;5.13;1.95;;;;;;;;;;4971499;28;20066;-84
2021/04/16 13:36:19;;;;;;;4.30;2.42;;;;;;;;;;4971518;28;20043;-84
2021/04/16 13:38:45;;;;;;;5.60;2.33;;;;;;;;;;4955469;29;20493;-83
2021/04/16 13:41:11;;;;;;;3.80;2.15;;;;;;;;;;4956438;29;20487;-83
2021/04/16 13:43:37;;;;;;;5.25;2.00;;;;;;;;;;4971467;28;20043;-83
2021/04/16 13:46:04;;;;;;;4.05;2.25;;;;;;;;;;4971205;28;20035;-83
2021/04/16 13:48:30;;;;;;;3.15;1.67;;;;;;;;;;4971210;28;20380;-83
2021/04/16 13:50:56;;;;;;;5.45;1.95;;;;;;;;;;4955096;29;20039;-83
2021/04/16 13:53:22;;;;;;;3.20;1.88;;;;;;;;;;4971173;28;20086;-83
2021/04/16 13:55:48;;;;;;;3.55;1.80;;;;;;;;;;4956113;29;20126;-82
2021/04/16 13:58:14;;;;;;;4.32;1.80;;;;;;;;;;4955143;29;20047;-85
2021/04/16 14:00:40;;;;;;;2.25;1.75;;;;;;;;;;4971326;28;20122;-86
2021/04/16 14:03:19;;;;;;;2.90;1.80;;;;;;;;;;4971016;28;20039;-87
2021/04/16 14:05:48;;;;;;;2.95;1.95;;;;;;;;;;4954872;29;20043;-84
2021/04/16 14:08:19;;;;;;;4.78;1.70;;;;;;;;;;4970778;28;20403;-87
2021/04/16 14:10:45;;;;;;;5.10;2.65;;;;;;;;;;4964325;28;20039;-86
2021/04/16 14:13:11;;;;;;;3.65;2.13;;;;;;;;;;4969858;28;20066;-83
2021/04/16 14:15:37;;;;;;;5.72;2.50;;;;;;;;;;4954694;28;20043;-85
2021/04/16 14:18:03;;;;;;;3.08;2.00;;;;;;;;;;4970575;28;20043;-84
2021/04/16 14:20:31;;;;;;;4.00;2.28;;;;;;;;;;4954911;28;20475;-83
2021/04/16 14:22:57;;;;;;;3.22;1.80;;;;;;;;;;4970505;28;20043;-84
2021/04/16 14:25:25;;;;;;;2.78;1.98;;;;;;;;;;4970598;28;20043;-84
2021/04/16 14:27:52;;;;;;;3.13;1.95;;;;;;;;;;4954586;29;20075;-83
2021/04/16 14:30:28;;;;;;;5.90;2.00;;;;;;;;;;4958048;29;20047;-86
2021/04/16 14:32:54;;;;;;;3.28;2.30;;;;;;;;;;4954588;29;20050;-85
2021/04/16 14:35:21;;;;;;;2.85;1.90;;;;;;;;;;4938341;29;20071;-83
2021/04/16 14:37:47;;;;;;;3.70;2.05;;;;;;;;;;4952170;28;20058;-84
2021/04/16 14:40:13;;;;;;;4.60;1.80;;;;;;;;;;4972763;28;20058;-84
2021/04/16 14:42:39;;;;;;;3.72;1.88;;;;;;;;;;4956590;28;20039;-84
2021/04/16 14:45:07;;;;;;;8.13;2.38;;;;;;;;;;4957523;28;20106;-84
2021/04/16 14:47:33;;;;;;;3.67;2.08;;;;;;;;;;4974950;28;20046;-84
2021/04/16 14:49:59;;;;;;;4.22;2.10;;;;;;;;;;4957117;28;20043;-84
2021/04/16 14:52:25;;;;;;;3.55;2.00;;;;;;;;;;4955455;28;20047;-84
2021/04/16 14:54:52;;;;;;;3.50;1.98;;;;;;;;;;4953988;29;20178;-84
2021/04/16 14:57:21;;;;;;;3.08;2.15;;;;;;;;;;4937873;29;20069;-84
2021/04/16 14:59:47;;;;;;;4.20;1.90;;;;;;;;;;4937527;29;20126;-84
2021/04/16 15:02:13;;;;;;;4.00;2.00;;;;;;;;;;4953608;29;20091;-83
2021/04/16 15:04:39;;;;;;;3.92;2.33;;;;;;;;;;4953541;29;20118;-86
2021/04/16 15:07:05;;;;;;;6.93;2.42;;;;;;;;;;4953458;29;20122;-84
2021/04/16 15:09:50;;;;;;;5.82;2.15;;;;;;;;;;4937473;29;20482;-84
2021/04/16 15:12:17;;;;;;;4.30;2.38;;;;;;;;;;4953411;29;20044;-84
2021/04/16 15:14:46;;;;;;;4.00;1.92;;;;;;;;;;4937416;29;20039;-83
2021/04/16 15:17:12;;;;;;;4.00;2.05;;;;;;;;;;4937248;29;20047;-84
2021/04/16 15:19:46;;;;;;;3.65;2.30;;;;;;;;;;4937609;29;20035;-84
2021/04/16 15:22:12;;;;;;;3.60;2.00;;;;;;;;;;4954638;29;20055;-84
2021/04/16 15:24:39;;;;;;;4.13;2.00;;;;;;;;;;4953595;29;20039;-84
2021/04/16 15:27:05;;;;;;;3.72;2.03;;;;;;;;;;4954391;29;20048;-84
2021/04/16 15:29:37;;;;;;;6.20;2.65;;;;;;;;;;4926247;29;20055;-84
2021/04/16 15:32:04;;;;;;;3.95;2.40;;;;;;;;;;4902259;29;20082;-84
2021/04/16 15:45:55;;;;;;;3.67;2.25;;;;;;;;;;4935111;29;20377;-84
2021/04/16 15:48:22;;;;;;;5.07;2.80;;;;;;;;;;4917877;29;20050;-84
2021/04/16 15:50:56;;;;;;;6.60;3.15;;;;;;;;;;4934881;29;20484;-85
2021/04/16 15:53:22;;;;;;;6.20;2.90;;;;;;;;;;4902338;29;20048;-86
2021/04/16 15:55:48;;;;;;;4.60;2.67;;;;;;;;;;4917960;29;20039;-86
2021/04/16 15:58:15;;;;;;;4.40;2.70;;;;;;;;;;4902331;29;20036;-82
2021/04/16 16:00:42;;;;;;;5.45;2.95;;;;;;;;;;4918084;29;20046;-85
2021/04/16 16:03:08;;;;;;;4.82;3.08;;;;;;;;;;4902248;29;20427;-85
2021/04/16 16:05:35;;;;;;;5.78;3.25;;;;;;;;;;4934857;29;20044;-85
2021/04/16 16:08:01;;;;;;;6.03;3.25;;;;;;;;;;4917595;29;20115;-85
2021/04/16 16:10:27;;;;;;;7.13;3.45;;;;;;;;;;4902042;29;20123;-82
2021/04/16 16:12:54;;;;;;;5.30;2.78;;;;;;;;;;4917744;29;20039;-81
2021/04/16 16:15:31;;;;;;;6.68;3.50;;;;;;;;;;4917672;29;20036;-81
2021/04/16 16:18:01;;;;;;;6.53;3.28;;;;;;;;;;4917725;29;20040;-80
2021/04/16 16:20:31;;;;;;;6.53;3.15;;;;;;;;;;4917864;29;20176;-81
2021/04/16 16:22:57;;;;;;;7.00;3.00;;;;;;;;;;4901972;29;20070;-80
2021/04/16 16:25:23;;;;;;;4.13;2.85;;;;;;;;;;4917798;29;20507;-81
2021/04/16 16:27:51;;;;;;;6.80;3.42;;;;;;;;;;4917528;29;20047;-81
2021/04/16 16:30:22;;;;;;;5.90;3.45;;;;;;;;;;4902030;29;20106;-81
2021/04/16 16:32:48;;;;;;;6.90;3.15;;;;;;;;;;4917555;29;20480;-81
2021/04/16 16:35:15;;;;;;;5.55;3.40;;;;;;;;;;4917858;29;20407;-82
2021/04/16 16:37:41;;;;;;;7.97;3.55;;;;;;;;;;4917725;29;20043;-82
2021/04/16 16:40:08;;;;;;;7.10;3.58;;;;;;;;;;4917604;29;20035;-84
2021/04/16 16:42:36;;;;;;;5.50;3.40;;;;;;;;;;4902449;29;20047;-82
2021/04/16 16:45:03;;;;;;;9.80;4.00;;;;;;;;;;4938200;29;20127;-86
2021/04/16 16:47:29;;;;;;;6.72;3.28;;;;;;;;;;4921229;29;20119;-85
2021/04/16 16:49:55;;;;;;;6.53;3.58;;;;;;;;;;4905545;29;20484;-85
2021/04/16 16:52:22;;;;;;;6.50;3.60;;;;;;;;;;4937872;29;20046;-85
2021/04/16 16:54:48;;;;;;;7.57;3.97;;;;;;;;;;4921054;29;20035;-85
2021/04/16 16:57:17;;;;;;;8.50;3.80;;;;;;;;;;4920769;29;20075;-84
2021/04/16 16:59:43;;;;;;;7.05;3.47;;;;;;;;;;4921123;29;20551;-84
2021/04/16 17:02:10;;;;;;;8.07;3.97;;;;;;;;;;4905522;29;20040;-84
2021/04/16 17:04:36;;;;;;;7.40;5.40;;;;;;;;;;4937759;29;20032;-84
2021/04/16 17:07:02;;;;;;;8.60;5.63;;;;;;;;;;4920804;29;20082;-85